BGBW

Narsarsuaq Airport

Narsarsuaq, Greenland

BGBW 201150Z 07006KT 040V100 9999 FEW200 M05/M13 Q1000

Observed Flight Rules
Oct-20 @ 11:50 UTC (36 minutes ago)
 
Visual Flight Rules
Wind Visibility Clouds
70° at 6 knots 10,000+ meters
  • Few at 20,000' AGL
Temperatures Readings
Current -5°C / 23°F
Dewpoint -13°C / 9°F
Humidity 54%
Altimeter 29.53" Hg
Pressure 1000 hPa
Elevation 26
Observed Flight Rules
Oct-20 @ 11:50 UTC
(36 minutes ago)
 
VFR
Wind Visibility
70° at 6 knots 10,000+ meters
Clouds
  • Few at 20,000' AGL
Temperature Dewpoint
-5°C / 23°F -13°C / 9°F
Humidity Altimeter Pressure
54% 29.53" Hg 1000 hPa